sensor_id;sensor_type;location;lat;lon;timestamp;temperature;humidity
1570;DHT22;778;50.120;8.698;2023-04-03T00:01:36;5.60;99.90
1570;DHT22;778;50.120;8.698;2023-04-03T00:04:05;5.60;99.90
1570;DHT22;778;50.120;8.698;2023-04-03T00:06:33;5.70;99.90
1570;DHT22;778;50.120;8.698;2023-04-03T00:09:02;5.60;99.90
1570;DHT22;778;50.120;8.698;2023-04-03T00:11:32;5.60;99.90
1570;DHT22;778;50.120;8.698;2023-04-03T00:14:01;5.50;99.90
1570;DHT22;778;50.120;8.698;2023-04-03T00:16:29;5.50;99.90
1570;DHT22;778;50.120;8.698;2023-04-03T00:18:58;5.60;99.90
1570;DHT22;778;50.120;8.698;2023-04-03T00:21:26;5.60;99.90
1570;DHT22;778;50.120;8.698;2023-04-03T00:23:55;5.50;99.90
1570;DHT22;778;50.120;8.698;2023-04-03T00:26:23;5.50;99.90
1570;DHT22;778;50.120;8.698;2023-04-03T00:28:53;5.50;99.90
1570;DHT22;778;50.120;8.698;2023-04-03T00:31:22;5.50;99.90
1570;DHT22;778;50.120;8.698;2023-04-03T00:33:51;5.50;99.90
1570;DHT22;778;50.120;8.698;2023-04-03T00:36:20;5.50;99.90
1570;DHT22;778;50.120;8.698;2023-04-03T00:38:48;5.60;99.90
1570;DHT22;778;50.120;8.698;2023-04-03T00:41:17;5.60;99.90
1570;DHT22;778;50.120;8.698;2023-04-03T00:43:45;5.60;99.90
1570;DHT22;778;50.120;8.698;2023-04-03T00:46:15;5.60;99.90
1570;DHT22;778;50.120;8.698;2023-04-03T00:48:45;5.60;99.90
1570;DHT22;778;50.120;8.698;2023-04-03T00:51:21;5.50;99.90
1570;DHT22;778;50.120;8.698;2023-04-03T00:53:54;5.50;99.90
1570;DHT22;778;50.120;8.698;2023-04-03T00:56:25;5.50;99.90
1570;DHT22;778;50.120;8.698;2023-04-03T00:58:59;5.50;99.90
1570;DHT22;778;50.120;8.698;2023-04-03T01:01:31;5.60;99.90
1570;DHT22;778;50.120;8.698;2023-04-03T01:04:00;5.50;99.90
1570;DHT22;778;50.120;8.698;2023-04-03T01:06:33;5.50;99.90
1570;DHT22;778;50.120;8.698;2023-04-03T01:09:06;5.50;99.90
1570;DHT22;778;50.120;8.698;2023-04-03T01:11:35;5.60;99.90
1570;DHT22;778;50.120;8.698;2023-04-03T01:14:03;5.60;99.90
1570;DHT22;778;50.120;8.698;2023-04-03T01:16:34;5.50;99.90
1570;DHT22;778;50.120;8.698;2023-04-03T01:19:03;5.40;99.90
1570;DHT22;778;50.120;8.698;2023-04-03T01:21:55;5.50;99.90
1570;DHT22;778;50.120;8.698;2023-04-03T01:24:34;5.40;99.90
1570;DHT22;778;50.120;8.698;2023-04-03T01:27:06;5.50;99.90
1570;DHT22;778;50.120;8.698;2023-04-03T01:29:37;5.50;99.90
1570;DHT22;778;50.120;8.698;2023-04-03T01:32:07;5.50;99.90
1570;DHT22;778;50.120;8.698;2023-04-03T01:34:36;5.50;99.90
1570;DHT22;778;50.120;8.698;2023-04-03T01:37:05;5.50;99.90
1570;DHT22;778;50.120;8.698;2023-04-03T01:39:34;5.50;99.90
1570;DHT22;778;50.120;8.698;2023-04-03T01:42:02;5.50;99.90
1570;DHT22;778;50.120;8.698;2023-04-03T01:44:36;5.60;99.90
1570;DHT22;778;50.120;8.698;2023-04-03T01:47:07;5.60;99.90
1570;DHT22;778;50.120;8.698;2023-04-03T01:49:36;5.60;99.90
1570;DHT22;778;50.120;8.698;2023-04-03T01:52:06;5.60;99.90
1570;DHT22;778;50.120;8.698;2023-04-03T01:54:34;5.50;99.90
1570;DHT22;778;50.120;8.698;2023-04-03T01:57:03;5.50;99.90
1570;DHT22;778;50.120;8.698;2023-04-03T01:59:32;5.60;99.90
1570;DHT22;778;50.120;8.698;2023-04-03T02:02:01;5.60;99.90
1570;DHT22;778;50.120;8.698;2023-04-03T02:04:31;5.60;99.90
1570;DHT22;778;50.120;8.698;2023-04-03T02:06:59;5.60;99.90
1570;DHT22;778;50.120;8.698;2023-04-03T02:09:28;5.60;99.90
1570;DHT22;778;50.120;8.698;2023-04-03T02:11:56;5.60;99.90
1570;DHT22;778;50.120;8.698;2023-04-03T02:14:25;5.60;99.90
1570;DHT22;778;50.120;8.698;2023-04-03T02:16:54;5.60;99.90
1570;DHT22;778;50.120;8.698;2023-04-03T02:19:23;5.50;99.90
1570;DHT22;778;50.120;8.698;2023-04-03T02:21:53;5.60;99.90
1570;DHT22;778;50.120;8.698;2023-04-03T02:24:21;5.60;99.90
1570;DHT22;778;50.120;8.698;2023-04-03T02:26:50;5.60;99.90
1570;DHT22;778;50.120;8.698;2023-04-03T02:29:18;5.60;99.90
1570;DHT22;778;50.120;8.698;2023-04-03T02:31:47;5.60;99.90
1570;DHT22;778;50.120;8.698;2023-04-03T02:34:16;5.60;99.90
1570;DHT22;778;50.120;8.698;2023-04-03T02:36:45;5.50;99.90
1570;DHT22;778;50.120;8.698;2023-04-03T02:39:16;5.50;99.90
1570;DHT22;778;50.120;8.698;2023-04-03T02:41:45;5.50;99.90
1570;DHT22;778;50.120;8.698;2023-04-03T02:44:18;5.50;99.90
1570;DHT22;778;50.120;8.698;2023-04-03T02:46:47;5.50;99.90
1570;DHT22;778;50.120;8.698;2023-04-03T02:49:16;5.30;99.90
1570;DHT22;778;50.120;8.698;2023-04-03T02:51:45;5.30;99.90
1570;DHT22;778;50.120;8.698;2023-04-03T02:54:15;5.30;99.90
1570;DHT22;778;50.120;8.698;2023-04-03T02:56:48;5.30;99.90
1570;DHT22;778;50.120;8.698;2023-04-03T02:59:17;5.30;99.90
1570;DHT22;778;50.120;8.698;2023-04-03T03:01:47;5.40;99.90
1570;DHT22;778;50.120;8.698;2023-04-03T03:04:15;5.30;99.90
1570;DHT22;778;50.120;8.698;2023-04-03T03:06:44;5.10;99.90
1570;DHT22;778;50.120;8.698;2023-04-03T03:09:13;5.20;99.90
1570;DHT22;778;50.120;8.698;2023-04-03T03:11:43;5.10;99.90
1570;DHT22;778;50.120;8.698;2023-04-03T03:14:12;5.10;99.90
1570;DHT22;778;50.120;8.698;2023-04-03T03:16:40;5.20;99.90
1570;DHT22;778;50.120;8.698;2023-04-03T03:19:09;5.20;99.90
1570;DHT22;778;50.120;8.698;2023-04-03T03:21:37;5.20;99.90
1570;DHT22;778;50.120;8.698;2023-04-03T03:24:07;5.20;99.90
1570;DHT22;778;50.120;8.698;2023-04-03T03:26:37;5.10;99.90
1570;DHT22;778;50.120;8.698;2023-04-03T03:29:05;5.10;99.90
1570;DHT22;778;50.120;8.698;2023-04-03T03:31:34;5.10;99.90
1570;DHT22;778;50.120;8.698;2023-04-03T03:34:02;5.00;99.90
1570;DHT22;778;50.120;8.698;2023-04-03T03:36:31;5.00;99.90
1570;DHT22;778;50.120;8.698;2023-04-03T03:39:00;5.00;99.90
1570;DHT22;778;50.120;8.698;2023-04-03T03:41:28;5.00;99.90
1570;DHT22;778;50.120;8.698;2023-04-03T03:43:59;4.90;99.90
1570;DHT22;778;50.120;8.698;2023-04-03T03:46:30;4.90;99.90
1570;DHT22;778;50.120;8.698;2023-04-03T03:48:59;4.90;99.90
1570;DHT22;778;50.120;8.698;2023-04-03T03:51:27;4.80;99.90
1570;DHT22;778;50.120;8.698;2023-04-03T03:53:57;4.70;99.90
1570;DHT22;778;50.120;8.698;2023-04-03T03:56:25;4.80;99.90
1570;DHT22;778;50.120;8.698;2023-04-03T03:58:54;4.70;99.90
1570;DHT22;778;50.120;8.698;2023-04-03T04:01:24;4.60;99.90
1570;DHT22;778;50.120;8.698;2023-04-03T04:03:53;4.60;99.90
1570;DHT22;778;50.120;8.698;2023-04-03T04:06:26;4.60;99.90
1570;DHT22;778;50.120;8.698;2023-04-03T04:08:58;4.60;99.90
1570;DHT22;778;50.120;8.698;2023-04-03T04:11:27;4.60;99.90
1570;DHT22;778;50.120;8.698;2023-04-03T04:13:56;4.50;99.90
1570;DHT22;778;50.120;8.698;2023-04-03T04:16:29;4.50;99.90
1570;DHT22;778;50.120;8.698;2023-04-03T04:19:03;4.40;99.90
1570;DHT22;778;50.120;8.698;2023-04-03T04:21:35;4.30;99.90
1570;DHT22;778;50.120;8.698;2023-04-03T04:24:04;4.40;99.90
1570;DHT22;778;50.120;8.698;2023-04-03T04:26:34;4.40;99.90
1570;DHT22;778;50.120;8.698;2023-04-03T04:29:03;4.30;99.90
1570;DHT22;778;50.120;8.698;2023-04-03T04:31:35;4.30;99.90
1570;DHT22;778;50.120;8.698;2023-04-03T04:34:04;4.30;99.90
1570;DHT22;778;50.120;8.698;2023-04-03T04:36:33;4.30;99.90
1570;DHT22;778;50.120;8.698;2023-04-03T04:39:02;4.20;99.90
1570;DHT22;778;50.120;8.698;2023-04-03T04:41:31;4.10;99.90
1570;DHT22;778;50.120;8.698;2023-04-03T04:44:01;4.00;99.90
1570;DHT22;778;50.120;8.698;2023-04-03T04:46:30;4.00;99.90
1570;DHT22;778;50.120;8.698;2023-04-03T04:49:01;4.10;99.90
1570;DHT22;778;50.120;8.698;2023-04-03T04:51:30;3.90;99.90
1570;DHT22;778;50.120;8.698;2023-04-03T04:54:15;3.80;99.90
1570;DHT22;778;50.120;8.698;2023-04-03T04:56:45;3.80;99.90
1570;DHT22;778;50.120;8.698;2023-04-03T04:59:14;3.90;99.90
1570;DHT22;778;50.120;8.698;2023-04-03T05:01:43;3.80;99.90
1570;DHT22;778;50.120;8.698;2023-04-03T05:04:16;3.70;99.90
1570;DHT22;778;50.120;8.698;2023-04-03T05:06:49;3.70;99.90
1570;DHT22;778;50.120;8.698;2023-04-03T05:09:22;3.80;99.90
1570;DHT22;778;50.120;8.698;2023-04-03T05:11:52;3.80;99.90
1570;DHT22;778;50.120;8.698;2023-04-03T05:14:24;3.90;99.90
1570;DHT22;778;50.120;8.698;2023-04-03T05:16:55;3.90;99.90
1570;DHT22;778;50.120;8.698;2023-04-03T05:19:29;3.80;99.90
1570;DHT22;778;50.120;8.698;2023-04-03T05:21:58;3.80;99.90
1570;DHT22;778;50.120;8.698;2023-04-03T05:24:28;3.70;99.90
1570;DHT22;778;50.120;8.698;2023-04-03T05:26:58;3.80;99.90
1570;DHT22;778;50.120;8.698;2023-04-03T05:29:27;3.60;99.90
1570;DHT22;778;50.120;8.698;2023-04-03T05:31:58;3.60;99.90
1570;DHT22;778;50.120;8.698;2023-04-03T05:34:26;3.60;99.90
1570;DHT22;778;50.120;8.698;2023-04-03T05:36:57;3.70;99.90
1570;DHT22;778;50.120;8.698;2023-04-03T05:39:27;3.60;99.90
1570;DHT22;778;50.120;8.698;2023-04-03T05:41:56;3.60;99.90
1570;DHT22;778;50.120;8.698;2023-04-03T05:44:25;3.60;99.90
1570;DHT22;778;50.120;8.698;2023-04-03T05:46:54;3.60;99.90
1570;DHT22;778;50.120;8.698;2023-04-03T05:49:23;3.60;99.90
1570;DHT22;778;50.120;8.698;2023-04-03T05:51:52;3.60;99.90
1570;DHT22;778;50.120;8.698;2023-04-03T05:54:26;3.70;99.90
1570;DHT22;778;50.120;8.698;2023-04-03T05:57:21;3.70;99.90
1570;DHT22;778;50.120;8.698;2023-04-03T05:59:50;3.60;99.90
1570;DHT22;778;50.120;8.698;2023-04-03T06:02:22;3.60;99.90
1570;DHT22;778;50.120;8.698;2023-04-03T06:04:52;3.60;99.90
1570;DHT22;778;50.120;8.698;2023-04-03T06:07:24;3.60;99.90
1570;DHT22;778;50.120;8.698;2023-04-03T06:09:56;3.60;99.90
1570;DHT22;778;50.120;8.698;2023-04-03T06:12:25;3.60;99.90
1570;DHT22;778;50.120;8.698;2023-04-03T06:14:56;3.50;99.90
1570;DHT22;778;50.120;8.698;2023-04-03T06:17:24;4.00;99.90
1570;DHT22;778;50.120;8.698;2023-04-03T06:19:53;4.40;99.90
1570;DHT22;778;50.120;8.698;2023-04-03T06:22:24;4.50;99.90
1570;DHT22;778;50.120;8.698;2023-04-03T06:24:54;4.60;99.90
1570;DHT22;778;50.120;8.698;2023-04-03T06:27:22;4.70;99.90
1570;DHT22;778;50.120;8.698;2023-04-03T06:29:51;4.50;99.90
1570;DHT22;778;50.120;8.698;2023-04-03T06:32:19;4.20;99.90
1570;DHT22;778;50.120;8.698;2023-04-03T06:34:48;4.00;99.90
1570;DHT22;778;50.120;8.698;2023-04-03T06:37:18;3.80;99.90
1570;DHT22;778;50.120;8.698;2023-04-03T06:39:49;3.80;99.90
1570;DHT22;778;50.120;8.698;2023-04-03T06:42:17;3.70;99.90
1570;DHT22;778;50.120;8.698;2023-04-03T06:44:53;3.70;99.90
1570;DHT22;778;50.120;8.698;2023-04-03T06:47:21;3.70;99.90
1570;DHT22;778;50.120;8.698;2023-04-03T06:49:50;3.70;99.90
1570;DHT22;778;50.120;8.698;2023-04-03T06:52:18;3.80;99.90
1570;DHT22;778;50.120;8.698;2023-04-03T06:54:48;3.90;99.90
1570;DHT22;778;50.120;8.698;2023-04-03T06:57:18;4.00;99.90
1570;DHT22;778;50.120;8.698;2023-04-03T06:59:47;3.90;99.90
1570;DHT22;778;50.120;8.698;2023-04-03T07:02:16;4.00;99.90
1570;DHT22;778;50.120;8.698;2023-04-03T07:04:44;4.10;99.90
1570;DHT22;778;50.120;8.698;2023-04-03T07:07:12;4.20;99.90
1570;DHT22;778;50.120;8.698;2023-04-03T07:09:41;4.20;99.90
1570;DHT22;778;50.120;8.698;2023-04-03T07:12:12;4.20;99.90
1570;DHT22;778;50.120;8.698;2023-04-03T07:14:40;4.30;99.90
1570;DHT22;778;50.120;8.698;2023-04-03T07:17:09;4.40;99.90
1570;DHT22;778;50.120;8.698;2023-04-03T07:19:37;4.40;99.90
1570;DHT22;778;50.120;8.698;2023-04-03T07:22:06;4.40;99.90
1570;DHT22;778;50.120;8.698;2023-04-03T07:24:34;4.80;99.90
1570;DHT22;778;50.120;8.698;2023-04-03T07:27:03;5.40;99.90
1570;DHT22;778;50.120;8.698;2023-04-03T07:29:33;6.00;99.90
1570;DHT22;778;50.120;8.698;2023-04-03T07:32:02;6.60;99.90
1570;DHT22;778;50.120;8.698;2023-04-03T07:34:31;6.90;99.90
1570;DHT22;778;50.120;8.698;2023-04-03T07:37:00;7.00;99.90
1570;DHT22;778;50.120;8.698;2023-04-03T07:39:29;6.90;99.90
1570;DHT22;778;50.120;8.698;2023-04-03T07:41:57;7.00;99.90
1570;DHT22;778;50.120;8.698;2023-04-03T07:44:26;7.10;99.90
1570;DHT22;778;50.120;8.698;2023-04-03T07:46:56;7.30;99.90
1570;DHT22;778;50.120;8.698;2023-04-03T07:49:25;7.40;99.90
1570;DHT22;778;50.120;8.698;2023-04-03T07:51:54;7.40;99.90
1570;DHT22;778;50.120;8.698;2023-04-03T07:54:22;7.70;99.90
1570;DHT22;778;50.120;8.698;2023-04-03T07:56:50;7.70;99.90
1570;DHT22;778;50.120;8.698;2023-04-03T07:59:19;7.80;99.90
1570;DHT22;778;50.120;8.698;2023-04-03T08:01:48;8.20;99.90
1570;DHT22;778;50.120;8.698;2023-04-03T08:04:17;8.10;99.90
1570;DHT22;778;50.120;8.698;2023-04-03T08:06:46;7.90;99.90
1570;DHT22;778;50.120;8.698;2023-04-03T08:09:15;8.00;99.90
1570;DHT22;778;50.120;8.698;2023-04-03T08:11:44;8.10;99.90
1570;DHT22;778;50.120;8.698;2023-04-03T08:14:12;7.80;99.90
1570;DHT22;778;50.120;8.698;2023-04-03T08:16:46;8.10;99.90
1570;DHT22;778;50.120;8.698;2023-04-03T08:19:16;8.10;99.90
1570;DHT22;778;50.120;8.698;2023-04-03T08:21:52;8.30;99.90
1570;DHT22;778;50.120;8.698;2023-04-03T08:24:22;8.40;99.90
1570;DHT22;778;50.120;8.698;2023-04-03T08:26:50;8.40;99.80
1570;DHT22;778;50.120;8.698;2023-04-03T08:29:19;8.50;99.90
1570;DHT22;778;50.120;8.698;2023-04-03T08:31:48;8.80;96.90
1570;DHT22;778;50.120;8.698;2023-04-03T08:34:18;8.90;95.40
1570;DHT22;778;50.120;8.698;2023-04-03T08:36:48;9.00;94.40
1570;DHT22;778;50.120;8.698;2023-04-03T08:39:16;8.90;94.60
1570;DHT22;778;50.120;8.698;2023-04-03T08:41:45;8.50;94.70
1570;DHT22;778;50.120;8.698;2023-04-03T08:44:19;8.40;95.80
1570;DHT22;778;50.120;8.698;2023-04-03T08:47:00;8.60;95.30
1570;DHT22;778;50.120;8.698;2023-04-03T08:49:35;8.50;95.40
1570;DHT22;778;50.120;8.698;2023-04-03T08:52:12;8.70;95.10
1570;DHT22;778;50.120;8.698;2023-04-03T08:54:49;8.80;92.60
1570;DHT22;778;50.120;8.698;2023-04-03T08:57:27;8.90;91.80
1570;DHT22;778;50.120;8.698;2023-04-03T09:00:00;9.20;92.30
1570;DHT22;778;50.120;8.698;2023-04-03T09:02:34;9.70;90.50
1570;DHT22;778;50.120;8.698;2023-04-03T09:05:11;9.50;85.60
1570;DHT22;778;50.120;8.698;2023-04-03T09:07:44;9.60;86.40
1570;DHT22;778;50.120;8.698;2023-04-03T09:10:20;9.50;85.60
1570;DHT22;778;50.120;8.698;2023-04-03T09:12:59;9.70;86.90
1570;DHT22;778;50.120;8.698;2023-04-03T09:15:29;9.40;84.10
1570;DHT22;778;50.120;8.698;2023-04-03T09:18:11;9.00;86.30
1570;DHT22;778;50.120;8.698;2023-04-03T09:20:48;9.00;87.90
1570;DHT22;778;50.120;8.698;2023-04-03T09:23:26;9.10;86.60
1570;DHT22;778;50.120;8.698;2023-04-03T09:26:02;9.10;88.10
1570;DHT22;778;50.120;8.698;2023-04-03T09:28:37;9.00;87.90
1570;DHT22;778;50.120;8.698;2023-04-03T09:31:20;9.50;85.50
1570;DHT22;778;50.120;8.698;2023-04-03T09:33:53;8.60;87.30
1570;DHT22;778;50.120;8.698;2023-04-03T09:36:43;8.50;88.30
1570;DHT22;778;50.120;8.698;2023-04-03T09:39:15;8.10;90.50
1570;DHT22;778;50.120;8.698;2023-04-03T09:41:57;8.20;90.60
1570;DHT22;778;50.120;8.698;2023-04-03T09:44:30;8.20;90.60
1570;DHT22;778;50.120;8.698;2023-04-03T09:47:00;8.30;92.40
1570;DHT22;778;50.120;8.698;2023-04-03T09:49:46;8.00;91.70
1570;DHT22;778;50.120;8.698;2023-04-03T09:52:25;7.90;95.10
1570;DHT22;778;50.120;8.698;2023-04-03T09:55:06;8.20;99.90
1570;DHT22;778;50.120;8.698;2023-04-03T09:57:36;7.90;95.00
1570;DHT22;778;50.120;8.698;2023-04-03T10:00:10;8.40;95.60
1570;DHT22;778;50.120;8.698;2023-04-03T10:02:51;8.80;93.20
1570;DHT22;778;50.120;8.698;2023-04-03T10:05:31;9.10;88.20
1570;DHT22;778;50.120;8.698;2023-04-03T10:08:14;9.20;90.30
1570;DHT22;778;50.120;8.698;2023-04-03T10:11:07;9.20;88.00
1570;DHT22;778;50.120;8.698;2023-04-03T10:13:53;9.70;84.50
1570;DHT22;778;50.120;8.698;2023-04-03T10:16:27;10.10;80.40
1570;DHT22;778;50.120;8.698;2023-04-03T10:22:16;9.90;78.40
1570;DHT22;778;50.120;8.698;2023-04-03T10:25:02;10.20;75.90
1570;DHT22;778;50.120;8.698;2023-04-03T10:27:44;10.20;75.40
1570;DHT22;778;50.120;8.698;2023-04-03T10:30:34;9.50;75.50
1570;DHT22;778;50.120;8.698;2023-04-03T10:33:19;9.40;78.50
1570;DHT22;778;50.120;8.698;2023-04-03T10:35:59;9.70;79.00
1570;DHT22;778;50.120;8.698;2023-04-03T10:38:46;9.50;76.80
1570;DHT22;778;50.120;8.698;2023-04-03T10:41:27;9.80;76.30
1570;DHT22;778;50.120;8.698;2023-04-03T10:44:13;9.80;73.80
1570;DHT22;778;50.120;8.698;2023-04-03T10:46:47;9.50;77.70
1570;DHT22;778;50.120;8.698;2023-04-03T10:49:31;9.10;73.90
1570;DHT22;778;50.120;8.698;2023-04-03T10:52:14;9.40;75.10
1570;DHT22;778;50.120;8.698;2023-04-03T10:54:51;8.90;74.50
1570;DHT22;778;50.120;8.698;2023-04-03T10:57:25;9.00;75.70
1570;DHT22;778;50.120;8.698;2023-04-03T10:59:57;9.00;74.90
1570;DHT22;778;50.120;8.698;2023-04-03T11:02:29;9.00;75.50
1570;DHT22;778;50.120;8.698;2023-04-03T11:05:01;9.20;72.50
1570;DHT22;778;50.120;8.698;2023-04-03T11:07:38;9.40;71.50
1570;DHT22;778;50.120;8.698;2023-04-03T11:10:13;9.80;70.80
1570;DHT22;778;50.120;8.698;2023-04-03T11:12:48;9.50;68.80
1570;DHT22;778;50.120;8.698;2023-04-03T11:15:19;9.50;66.70
1570;DHT22;778;50.120;8.698;2023-04-03T11:17:51;9.20;66.70
1570;DHT22;778;50.120;8.698;2023-04-03T11:20:26;9.90;67.60
1570;DHT22;778;50.120;8.698;2023-04-03T11:23:03;9.70;63.80
1570;DHT22;778;50.120;8.698;2023-04-03T11:25:34;9.90;63.60
1570;DHT22;778;50.120;8.698;2023-04-03T11:28:09;9.90;62.30
1570;DHT22;778;50.120;8.698;2023-04-03T11:30:45;9.90;61.00
1570;DHT22;778;50.120;8.698;2023-04-03T11:33:24;10.10;59.30
1570;DHT22;778;50.120;8.698;2023-04-03T11:36:03;9.80;59.70
1570;DHT22;778;50.120;8.698;2023-04-03T11:38:52;10.00;58.50
1570;DHT22;778;50.120;8.698;2023-04-03T11:41:26;9.80;58.80
1570;DHT22;778;50.120;8.698;2023-04-03T11:43:59;9.80;58.70
1570;DHT22;778;50.120;8.698;2023-04-03T11:46:50;9.70;59.00
1570;DHT22;778;50.120;8.698;2023-04-03T11:52:56;9.30;58.40
1570;DHT22;778;50.120;8.698;2023-04-03T11:55:55;9.40;58.00
1570;DHT22;778;50.120;8.698;2023-04-03T11:58:30;9.50;58.50
1570;DHT22;778;50.120;8.698;2023-04-03T12:01:07;9.40;58.30
1570;DHT22;778;50.120;8.698;2023-04-03T12:07:13;9.60;58.30
1570;DHT22;778;50.120;8.698;2023-04-03T12:10:01;9.50;58.50
1570;DHT22;778;50.120;8.698;2023-04-03T12:12:58;9.80;58.80
1570;DHT22;778;50.120;8.698;2023-04-03T12:15:51;9.70;57.70
1570;DHT22;778;50.120;8.698;2023-04-03T12:18:59;9.20;57.90
1570;DHT22;778;50.120;8.698;2023-04-03T12:24:43;9.30;58.20
1570;DHT22;778;50.120;8.698;2023-04-03T12:30:13;9.10;58.70
1570;DHT22;778;50.120;8.698;2023-04-03T12:33:09;9.30;58.90
1570;DHT22;778;50.120;8.698;2023-04-03T12:35:57;9.40;59.10
1570;DHT22;778;50.120;8.698;2023-04-03T12:38:41;9.70;58.70
1570;DHT22;778;50.120;8.698;2023-04-03T12:41:23;9.60;58.40
1570;DHT22;778;50.120;8.698;2023-04-03T12:44:31;9.00;58.10
1570;DHT22;778;50.120;8.698;2023-04-03T12:47:21;9.20;58.20
1570;DHT22;778;50.120;8.698;2023-04-03T12:49:53;9.00;57.10
1570;DHT22;778;50.120;8.698;2023-04-03T12:52:32;9.00;57.80
1570;DHT22;778;50.120;8.698;2023-04-03T12:55:11;9.10;57.30
1570;DHT22;778;50.120;8.698;2023-04-03T12:57:43;8.90;57.60
1570;DHT22;778;50.120;8.698;2023-04-03T13:00:29;9.20;59.20
1570;DHT22;778;50.120;8.698;2023-04-03T13:03:03;9.30;57.40
1570;DHT22;778;50.120;8.698;2023-04-03T13:05:33;9.10;57.70
1570;DHT22;778;50.120;8.698;2023-04-03T13:08:07;9.20;60.50
1570;DHT22;778;50.120;8.698;2023-04-03T13:10:48;9.20;60.40
1570;DHT22;778;50.120;8.698;2023-04-03T13:13:19;9.10;60.20
1570;DHT22;778;50.120;8.698;2023-04-03T13:15:48;9.00;57.90
1570;DHT22;778;50.120;8.698;2023-04-03T13:18:23;8.90;57.70
1570;DHT22;778;50.120;8.698;2023-04-03T13:20:54;9.00;57.90
1570;DHT22;778;50.120;8.698;2023-04-03T13:23:29;9.00;60.70
1570;DHT22;778;50.120;8.698;2023-04-03T13:25:58;9.00;58.40
1570;DHT22;778;50.120;8.698;2023-04-03T13:28:31;9.10;58.60
1570;DHT22;778;50.120;8.698;2023-04-03T13:31:05;9.00;57.90
1570;DHT22;778;50.120;8.698;2023-04-03T13:33:37;9.00;58.20
1570;DHT22;778;50.120;8.698;2023-04-03T13:36:08;9.00;57.60
1570;DHT22;778;50.120;8.698;2023-04-03T13:38:58;9.00;57.80
1570;DHT22;778;50.120;8.698;2023-04-03T13:41:30;9.10;57.60
1570;DHT22;778;50.120;8.698;2023-04-03T13:44:16;9.10;57.20
1570;DHT22;778;50.120;8.698;2023-04-03T13:46:46;8.90;57.70
1570;DHT22;778;50.120;8.698;2023-04-03T13:49:21;9.00;57.80
1570;DHT22;778;50.120;8.698;2023-04-03T13:51:50;8.80;56.90
1570;DHT22;778;50.120;8.698;2023-04-03T13:54:36;8.80;57.00
1570;DHT22;778;50.120;8.698;2023-04-03T13:57:13;8.50;56.90
1570;DHT22;778;50.120;8.698;2023-04-03T13:59:43;8.60;57.90
1570;DHT22;778;50.120;8.698;2023-04-03T14:02:18;8.80;57.80
1570;DHT22;778;50.120;8.698;2023-04-03T14:04:51;8.70;56.90
1570;DHT22;778;50.120;8.698;2023-04-03T14:07:23;8.70;57.10
1570;DHT22;778;50.120;8.698;2023-04-03T14:09:54;8.90;57.50
1570;DHT22;778;50.120;8.698;2023-04-03T14:12:27;9.00;57.20
1570;DHT22;778;50.120;8.698;2023-04-03T14:14:59;8.60;57.50
1570;DHT22;778;50.120;8.698;2023-04-03T14:17:31;8.80;58.50
1570;DHT22;778;50.120;8.698;2023-04-03T14:20:00;8.90;58.10
1570;DHT22;778;50.120;8.698;2023-04-03T14:22:31;8.60;56.80
1570;DHT22;778;50.120;8.698;2023-04-03T14:25:02;8.50;57.10
1570;DHT22;778;50.120;8.698;2023-04-03T14:27:36;8.40;57.50
1570;DHT22;778;50.120;8.698;2023-04-03T14:30:11;8.50;56.80
1570;DHT22;778;50.120;8.698;2023-04-03T14:32:44;8.50;56.20
1570;DHT22;778;50.120;8.698;2023-04-03T14:35:13;8.40;56.70
1570;DHT22;778;50.120;8.698;2023-04-03T14:37:43;8.50;56.70
1570;DHT22;778;50.120;8.698;2023-04-03T14:40:17;8.50;56.60
1570;DHT22;778;50.120;8.698;2023-04-03T14:42:47;8.80;57.70
1570;DHT22;778;50.120;8.698;2023-04-03T14:45:17;8.90;56.90
1570;DHT22;778;50.120;8.698;2023-04-03T14:47:49;8.70;57.20
1570;DHT22;778;50.120;8.698;2023-04-03T14:50:21;8.60;58.20
1570;DHT22;778;50.120;8.698;2023-04-03T14:52:51;8.70;58.20
1570;DHT22;778;50.120;8.698;2023-04-03T14:55:24;8.70;58.60
1570;DHT22;778;50.120;8.698;2023-04-03T14:57:55;8.80;58.50
1570;DHT22;778;50.120;8.698;2023-04-03T15:00:23;8.50;58.20
1570;DHT22;778;50.120;8.698;2023-04-03T15:02:52;8.40;58.20
1570;DHT22;778;50.120;8.698;2023-04-03T15:05:20;8.40;57.80
1570;DHT22;778;50.120;8.698;2023-04-03T15:07:52;8.40;57.90
1570;DHT22;778;50.120;8.698;2023-04-03T15:10:28;8.30;57.30
1570;DHT22;778;50.120;8.698;2023-04-03T15:12:58;8.50;57.80
1570;DHT22;778;50.120;8.698;2023-04-03T15:15:29;8.50;57.50
1570;DHT22;778;50.120;8.698;2023-04-03T15:17:58;8.50;56.80
1570;DHT22;778;50.120;8.698;2023-04-03T15:20:27;8.40;57.10
1570;DHT22;778;50.120;8.698;2023-04-03T15:23:00;8.50;57.20
1570;DHT22;778;50.120;8.698;2023-04-03T15:25:30;8.60;58.20
1570;DHT22;778;50.120;8.698;2023-04-03T15:27:59;8.50;56.30
1570;DHT22;778;50.120;8.698;2023-04-03T15:30:28;8.50;56.40
1570;DHT22;778;50.120;8.698;2023-04-03T15:32:56;8.50;57.00
1570;DHT22;778;50.120;8.698;2023-04-03T15:35:25;8.50;57.00
1570;DHT22;778;50.120;8.698;2023-04-03T15:37:53;8.70;57.80
1570;DHT22;778;50.120;8.698;2023-04-03T15:40:22;8.70;57.10
1570;DHT22;778;50.120;8.698;2023-04-03T15:42:51;8.80;57.40
1570;DHT22;778;50.120;8.698;2023-04-03T15:45:20;8.80;56.60
1570;DHT22;778;50.120;8.698;2023-04-03T15:47:49;8.70;56.20
1570;DHT22;778;50.120;8.698;2023-04-03T15:50:18;8.50;56.20
1570;DHT22;778;50.120;8.698;2023-04-03T15:52:49;8.70;57.50
1570;DHT22;778;50.120;8.698;2023-04-03T15:55:21;8.50;57.10
1570;DHT22;778;50.120;8.698;2023-04-03T15:57:51;8.30;56.90
1570;DHT22;778;50.120;8.698;2023-04-03T16:00:20;8.30;57.70
1570;DHT22;778;50.120;8.698;2023-04-03T16:02:51;8.30;57.60
1570;DHT22;778;50.120;8.698;2023-04-03T16:05:21;8.30;57.00
1570;DHT22;778;50.120;8.698;2023-04-03T16:07:50;8.30;57.00
1570;DHT22;778;50.120;8.698;2023-04-03T16:10:19;8.40;57.00
1570;DHT22;778;50.120;8.698;2023-04-03T16:12:47;8.20;56.60
1570;DHT22;778;50.120;8.698;2023-04-03T16:15:17;8.20;57.00
1570;DHT22;778;50.120;8.698;2023-04-03T16:17:47;8.20;57.50
1570;DHT22;778;50.120;8.698;2023-04-03T16:20:16;8.10;57.20
1570;DHT22;778;50.120;8.698;2023-04-03T16:22:46;8.20;56.60
1570;DHT22;778;50.120;8.698;2023-04-03T16:25:14;8.10;56.40
1570;DHT22;778;50.120;8.698;2023-04-03T16:27:43;8.10;56.60
1570;DHT22;778;50.120;8.698;2023-04-03T16:30:11;8.20;57.00
1570;DHT22;778;50.120;8.698;2023-04-03T16:32:42;8.20;56.40
1570;DHT22;778;50.120;8.698;2023-04-03T16:35:10;8.00;56.50
1570;DHT22;778;50.120;8.698;2023-04-03T16:37:39;7.90;56.50
1570;DHT22;778;50.120;8.698;2023-04-03T16:40:09;7.90;56.90
1570;DHT22;778;50.120;8.698;2023-04-03T16:42:40;8.00;57.20
1570;DHT22;778;50.120;8.698;2023-04-03T16:45:09;8.10;57.00
1570;DHT22;778;50.120;8.698;2023-04-03T16:47:37;8.00;56.90
1570;DHT22;778;50.120;8.698;2023-04-03T16:50:09;8.00;56.60
1570;DHT22;778;50.120;8.698;2023-04-03T16:52:37;8.10;57.60
1570;DHT22;778;50.120;8.698;2023-04-03T16:55:07;8.00;57.00
1570;DHT22;778;50.120;8.698;2023-04-03T16:57:35;7.90;57.40
1570;DHT22;778;50.120;8.698;2023-04-03T17:00:05;7.90;57.40
1570;DHT22;778;50.120;8.698;2023-04-03T17:02:35;7.90;58.10
1570;DHT22;778;50.120;8.698;2023-04-03T17:05:04;7.70;58.00
1570;DHT22;778;50.120;8.698;2023-04-03T17:07:34;7.60;58.50
1570;DHT22;778;50.120;8.698;2023-04-03T17:10:04;7.60;58.20
1570;DHT22;778;50.120;8.698;2023-04-03T17:12:33;7.50;58.20
1570;DHT22;778;50.120;8.698;2023-04-03T17:15:01;7.40;58.40
1570;DHT22;778;50.120;8.698;2023-04-03T17:17:30;7.50;58.80
1570;DHT22;778;50.120;8.698;2023-04-03T17:19:59;7.30;58.90
1570;DHT22;778;50.120;8.698;2023-04-03T17:22:28;7.30;59.70
1570;DHT22;778;50.120;8.698;2023-04-03T17:25:00;7.40;60.30